Time;durP1;ratioP1;P1;durP2;ratioP2;P2;SDS_P1;SDS_P2;PMS_P1;PMS_P2;Temp;Humidity;BMP_temperature;BMP_pressure;BME280_temperature;BME280_humidity;BME280_pressure;Samples;Min_cycle;Max_cycle;Signal;HPM_P1;HPM_P2
2024/01/14 00:01:53;;;;;;;44.33;25.13;;;0.00;99.90;;;;;;5073326;28;20653;-67
2024/01/14 00:04:19;;;;;;;47.13;24.53;;;-0.10;99.90;;;;;;5055229;28;20186;-67
2024/01/14 00:06:45;;;;;;;40.83;22.97;;;0.10;99.90;;;;;;5073854;28;20403;-67
2024/01/14 00:09:11;;;;;;;41.53;24.70;;;0.20;99.90;;;;;;5073271;28;20170;-67
2024/01/14 00:11:37;;;;;;;48.70;26.77;;;0.10;99.90;;;;;;5073120;28;20463;-68
2024/01/14 00:14:03;;;;;;;39.93;24.90;;;0.10;99.90;;;;;;5073188;28;20431;-68
2024/01/14 00:16:34;;;;;;;45.97;24.87;;;0.10;99.90;;;;;;5073135;28;20168;-67
2024/01/14 00:19:03;;;;;;;40.90;23.20;;;0.20;99.90;;;;;;5073098;28;20148;-67
2024/01/14 00:21:29;;;;;;;42.13;23.43;;;0.30;99.90;;;;;;5073217;28;20424;-68
2024/01/14 00:23:55;;;;;;;43.97;25.20;;;0.40;99.90;;;;;;5073186;28;20441;-67
2024/01/14 00:26:21;;;;;;;44.20;25.60;;;0.30;99.90;;;;;;5073166;28;20407;-67
2024/01/14 00:28:47;;;;;;;48.50;26.03;;;0.20;99.90;;;;;;5072890;28;20198;-67
2024/01/14 00:31:12;;;;;;;38.50;24.00;;;0.00;99.90;;;;;;5072863;28;20172;-66
2024/01/14 00:33:40;;;;;;;42.03;22.23;;;-0.10;99.90;;;;;;5072932;28;20435;-68
2024/01/14 00:36:07;;;;;;;47.10;24.70;;;-0.20;99.90;;;;;;5055698;28;20173;-67
2024/01/14 00:38:32;;;;;;;40.40;24.33;;;-0.10;99.90;;;;;;5073688;28;20824;-67
2024/01/14 00:40:58;;;;;;;44.27;26.30;;;0.00;99.90;;;;;;5072760;28;20447;-67
2024/01/14 00:43:24;;;;;;;44.60;23.90;;;0.00;99.90;;;;;;5072867;28;20254;-67
2024/01/14 00:45:49;;;;;;;41.27;23.37;;;0.20;99.90;;;;;;5073003;28;20164;-68
2024/01/14 00:48:15;;;;;;;45.50;25.97;;;0.30;99.90;;;;;;5072711;28;20233;-67
2024/01/14 00:50:41;;;;;;;41.20;23.13;;;0.40;99.90;;;;;;5072670;28;20255;-66
2024/01/14 00:53:06;;;;;;;42.13;24.43;;;0.40;99.90;;;;;;5072922;28;20528;-67
2024/01/14 00:55:32;;;;;;;43.00;23.63;;;0.50;99.90;;;;;;5073153;28;20257;-67
2024/01/14 00:57:58;;;;;;;41.30;22.97;;;0.60;99.90;;;;;;5072596;28;20172;-66
2024/01/14 01:00:24;;;;;;;40.83;23.30;;;0.50;99.90;;;;;;5073478;28;20196;-66
2024/01/14 01:02:50;;;;;;;41.20;23.80;;;0.40;99.90;;;;;;5076655;28;20189;-67
2024/01/14 01:05:16;;;;;;;45.77;22.83;;;0.30;99.90;;;;;;5076790;28;20506;-66
2024/01/14 01:07:41;;;;;;;37.83;23.37;;;0.20;99.90;;;;;;5076580;28;20925;-67
2024/01/14 01:10:07;;;;;;;42.53;24.47;;;0.30;99.90;;;;;;5076987;28;20197;-66
2024/01/14 01:12:33;;;;;;;41.07;24.40;;;0.30;99.90;;;;;;5076224;28;20190;-67
2024/01/14 01:15:00;;;;;;;41.40;25.33;;;0.40;99.90;;;;;;5058402;28;20220;-67
2024/01/14 01:17:25;;;;;;;46.50;25.27;;;0.40;99.90;;;;;;5058357;28;20440;-66
2024/01/14 01:19:51;;;;;;;40.23;24.07;;;0.40;99.90;;;;;;5076096;28;20479;-67
2024/01/14 01:22:16;;;;;;;41.97;25.40;;;0.30;99.90;;;;;;5075893;28;20213;-67
2024/01/14 01:24:43;;;;;;;46.30;26.10;;;0.20;99.90;;;;;;5076453;28;20227;-67
2024/01/14 01:27:09;;;;;;;46.20;24.60;;;0.20;99.90;;;;;;5075948;28;20814;-66
2024/01/14 01:29:34;;;;;;;45.57;25.30;;;0.10;99.90;;;;;;5076517;28;20199;-67
2024/01/14 01:32:00;;;;;;;52.77;25.30;;;0.10;99.90;;;;;;5075944;28;20959;-67
2024/01/14 01:34:26;;;;;;;51.00;26.63;;;0.10;99.90;;;;;;5075949;28;20256;-66
2024/01/14 01:36:51;;;;;;;49.43;26.30;;;0.10;99.90;;;;;;5075885;28;20169;-66
2024/01/14 01:39:17;;;;;;;45.40;26.60;;;0.20;99.90;;;;;;5075465;28;20190;-66
2024/01/14 01:41:42;;;;;;;43.17;26.20;;;0.30;99.90;;;;;;5076407;28;20162;-67
2024/01/14 01:44:09;;;;;;;43.23;23.90;;;0.40;99.90;;;;;;5075664;28;20193;-66
2024/01/14 01:46:35;;;;;;;44.10;25.50;;;0.30;99.90;;;;;;5057875;28;20166;-67
2024/01/14 01:49:02;;;;;;;42.70;24.67;;;0.10;99.90;;;;;;5076106;28;20412;-68
2024/01/14 01:51:29;;;;;;;44.80;24.13;;;0.30;99.90;;;;;;5075946;28;20486;-67
2024/01/14 01:53:56;;;;;;;43.53;24.63;;;0.30;99.90;;;;;;5075814;28;21051;-68
2024/01/14 01:56:22;;;;;;;43.07;24.83;;;0.30;99.90;;;;;;5075410;28;20404;-68
2024/01/14 01:58:48;;;;;;;47.53;26.20;;;0.40;99.90;;;;;;5075356;28;20415;-67
2024/01/14 02:01:14;;;;;;;42.87;25.83;;;0.50;99.90;;;;;;5075532;28;20453;-67
2024/01/14 02:03:40;;;;;;;44.47;26.57;;;0.40;99.90;;;;;;5075627;28;20786;-68
2024/01/14 02:06:07;;;;;;;49.87;28.07;;;0.30;99.90;;;;;;5075721;28;20396;-67
2024/01/14 02:08:33;;;;;;;46.17;24.63;;;0.30;99.90;;;;;;5075982;28;20418;-68
2024/01/14 02:11:00;;;;;;;43.37;24.70;;;0.30;99.90;;;;;;5075582;28;20483;-68
2024/01/14 02:13:25;;;;;;;47.53;28.80;;;0.40;99.90;;;;;;5074417;28;20203;-68
2024/01/14 02:15:51;;;;;;;39.67;26.57;;;0.50;99.90;;;;;;5075751;28;20760;-68
2024/01/14 02:18:16;;;;;;;49.43;26.80;;;0.50;99.90;;;;;;5075193;28;20540;-67
2024/01/14 02:20:42;;;;;;;46.03;27.17;;;0.50;99.90;;;;;;5075093;28;20570;-67
2024/01/14 02:23:09;;;;;;;45.63;26.40;;;0.30;99.90;;;;;;5074891;28;20687;-65
2024/01/14 02:25:35;;;;;;;41.93;25.23;;;0.10;99.90;;;;;;5075299;28;20166;-66
2024/01/14 02:28:00;;;;;;;44.60;24.10;;;0.30;99.90;;;;;;5075003;28;20449;-66
2024/01/14 02:30:27;;;;;;;41.87;24.23;;;0.40;99.90;;;;;;5075013;28;20193;-66
2024/01/14 02:32:54;;;;;;;37.63;23.47;;;0.30;99.90;;;;;;5057267;28;20197;-66
2024/01/14 02:35:20;;;;;;;45.50;25.80;;;0.40;99.90;;;;;;5075649;28;20403;-66
2024/01/14 02:37:45;;;;;;;48.63;28.20;;;0.40;99.90;;;;;;5056822;28;20423;-67
2024/01/14 02:40:11;;;;;;;47.60;25.93;;;0.30;99.90;;;;;;5074949;28;20196;-66
2024/01/14 02:42:38;;;;;;;46.07;27.10;;;0.10;99.90;;;;;;5074582;28;20196;-67
2024/01/14 02:45:04;;;;;;;40.57;23.10;;;-0.50;99.90;;;;;;5074764;28;20400;-67
2024/01/14 02:47:30;;;;;;;44.07;24.93;;;-0.50;99.90;;;;;;5074327;28;20778;-67
2024/01/14 02:49:55;;;;;;;41.17;22.83;;;-0.30;99.90;;;;;;5074763;28;20414;-67
2024/01/14 02:52:21;;;;;;;41.90;26.70;;;-0.40;99.90;;;;;;5074380;28;20199;-66
2024/01/14 02:54:46;;;;;;;44.43;23.50;;;-0.40;99.90;;;;;;5074434;28;20263;-66
2024/01/14 02:57:12;;;;;;;52.83;27.37;;;-0.40;99.90;;;;;;5074388;28;20173;-66
2024/01/14 02:59:38;;;;;;;45.30;25.90;;;-0.20;99.90;;;;;;5074615;28;20559;-66
2024/01/14 03:02:03;;;;;;;45.00;27.43;;;-0.20;99.90;;;;;;5074592;28;20182;-66
2024/01/14 03:04:29;;;;;;;46.90;24.77;;;-0.40;99.90;;;;;;5074256;28;20209;-66
2024/01/14 03:06:54;;;;;;;45.40;23.70;;;-0.70;99.90;;;;;;5074389;28;20656;-67
2024/01/14 03:09:20;;;;;;;51.40;28.40;;;-0.80;99.90;;;;;;5074241;28;20169;-66
2024/01/14 03:11:46;;;;;;;46.50;26.63;;;-0.60;99.90;;;;;;5074452;28;20601;-66
2024/01/14 03:14:12;;;;;;;47.77;26.57;;;-0.70;99.90;;;;;;5073848;28;20463;-65
2024/01/14 03:16:37;;;;;;;56.47;27.63;;;-0.70;99.90;;;;;;5074096;28;20173;-66
2024/01/14 03:19:03;;;;;;;42.17;22.80;;;-0.70;99.90;;;;;;5074482;28;20173;-66
2024/01/14 03:21:29;;;;;;;40.30;23.97;;;-0.70;99.90;;;;;;5074170;28;20617;-66
2024/01/14 03:23:55;;;;;;;53.23;27.17;;;-0.80;99.90;;;;;;5082179;22;20519;-68
2024/01/14 03:26:20;;;;;;;44.73;24.60;;;-0.80;99.90;;;;;;5054203;28;20214;-69
2024/01/14 03:28:46;;;;;;;48.03;26.73;;;-0.80;99.90;;;;;;5054032;28;20543;-69
2024/01/14 03:31:15;;;;;;;48.80;24.40;;;-0.70;99.90;;;;;;5053635;28;20218;-69
2024/01/14 03:33:44;;;;;;;53.13;26.37;;;-0.80;99.90;;;;;;5052011;28;20195;-68
2024/01/14 03:36:16;;;;;;;47.37;27.00;;;-0.80;99.90;;;;;;5054118;28;20400;-68
2024/01/14 03:38:42;;;;;;;43.67;23.80;;;-0.70;99.90;;;;;;5053751;28;20751;-68
2024/01/14 03:41:07;;;;;;;47.07;24.93;;;-0.60;99.90;;;;;;5054098;28;20813;-67
2024/01/14 03:43:33;;;;;;;48.47;26.47;;;-0.50;99.90;;;;;;5053397;28;20519;-69
2024/01/14 03:45:58;;;;;;;41.20;23.57;;;-0.70;99.90;;;;;;5053291;28;20217;-69
2024/01/14 03:48:24;;;;;;;47.40;25.30;;;-0.70;99.90;;;;;;5053492;28;20641;-68
2024/01/14 03:50:50;;;;;;;46.83;26.47;;;-0.70;99.90;;;;;;5053453;28;20602;-69
2024/01/14 03:53:15;;;;;;;42.90;25.57;;;-0.90;99.90;;;;;;5053668;28;20245;-69
2024/01/14 03:55:41;;;;;;;39.50;23.83;;;-0.90;99.90;;;;;;5053437;28;20202;-68
2024/01/14 03:58:06;;;;;;;40.57;24.17;;;-0.90;99.90;;;;;;5053422;28;20528;-68
2024/01/14 04:00:32;;;;;;;39.33;24.30;;;-0.90;99.90;;;;;;5053261;28;20264;-69
2024/01/14 04:02:57;;;;;;;43.97;23.20;;;-0.90;99.90;;;;;;5053715;28;20191;-67
2024/01/14 04:05:23;;;;;;;45.13;25.03;;;-1.00;99.90;;;;;;5053354;28;20186;-69
2024/01/14 04:07:51;;;;;;;42.87;23.00;;;-0.90;99.90;;;;;;5053264;28;20249;-69
2024/01/14 04:10:17;;;;;;;45.07;25.07;;;-1.10;99.90;;;;;;5053770;28;20200;-69
2024/01/14 04:12:43;;;;;;;50.57;25.47;;;-1.10;99.90;;;;;;5053310;28;20459;-66
2024/01/14 04:15:09;;;;;;;45.20;27.33;;;-1.10;99.90;;;;;;5035079;28;20256;-68
2024/01/14 04:17:35;;;;;;;53.47;26.53;;;-1.20;99.90;;;;;;5053302;28;20177;-69
2024/01/14 04:20:00;;;;;;;47.90;25.53;;;-1.10;99.90;;;;;;5052942;28;20462;-69
2024/01/14 04:22:26;;;;;;;52.83;27.57;;;-1.00;99.90;;;;;;5053027;28;20527;-68
2024/01/14 04:24:52;;;;;;;51.33;29.27;;;-1.00;99.90;;;;;;5035192;28;20174;-69
2024/01/14 04:27:17;;;;;;;53.43;27.70;;;-1.00;99.90;;;;;;5053045;28;20259;-68
2024/01/14 04:29:43;;;;;;;53.00;27.43;;;-1.20;99.90;;;;;;5053451;28;20257;-68
2024/01/14 04:32:08;;;;;;;54.57;29.00;;;-1.20;99.90;;;;;;5052959;28;20174;-68
2024/01/14 04:34:34;;;;;;;69.60;29.77;;;-1.30;99.90;;;;;;5052711;28;20685;-69
2024/01/14 04:37:00;;;;;;;51.43;26.13;;;-1.10;99.90;;;;;;5053070;28;20228;-69
2024/01/14 04:39:25;;;;;;;42.93;24.87;;;-1.20;99.90;;;;;;5052824;28;20333;-69
2024/01/14 04:41:52;;;;;;;51.80;25.77;;;-1.40;99.90;;;;;;5052940;28;20401;-69
2024/01/14 04:44:17;;;;;;;56.90;27.50;;;-1.60;99.90;;;;;;5052738;28;20752;-68
2024/01/14 04:46:43;;;;;;;49.13;26.00;;;-1.60;99.90;;;;;;5053074;28;20429;-69
2024/01/14 04:49:09;;;;;;;48.53;24.50;;;-1.50;99.90;;;;;;5052809;28;20174;-68
2024/01/14 04:51:35;;;;;;;47.20;25.40;;;-1.30;99.90;;;;;;5052779;28;20168;-69
2024/01/14 04:54:02;;;;;;;59.20;30.90;;;-1.40;99.90;;;;;;5052625;28;20192;-69
2024/01/14 04:56:28;;;;;;;51.43;26.40;;;-1.30;99.90;;;;;;5052648;28;20395;-69
2024/01/14 04:58:54;;;;;;;49.73;26.33;;;-1.30;99.90;;;;;;5052959;28;20582;-69
2024/01/14 05:01:20;;;;;;;48.23;25.97;;;-1.40;99.90;;;;;;5052653;28;20938;-69
2024/01/14 05:03:45;;;;;;;43.77;24.10;;;-1.40;99.90;;;;;;5052671;28;20186;-69
2024/01/14 05:06:11;;;;;;;52.97;26.07;;;-1.40;99.90;;;;;;5052635;28;20164;-69
2024/01/14 05:08:38;;;;;;;44.73;25.47;;;-1.50;99.90;;;;;;5034656;28;20184;-69
2024/01/14 05:11:04;;;;;;;42.67;21.27;;;-1.50;99.90;;;;;;5052497;28;20219;-69
2024/01/14 05:13:29;;;;;;;45.07;23.40;;;-1.60;99.90;;;;;;5052609;28;20529;-68
2024/01/14 05:15:55;;;;;;;42.90;23.73;;;-1.60;99.90;;;;;;5052774;28;20490;-69
2024/01/14 05:18:21;;;;;;;45.43;25.00;;;-1.40;99.90;;;;;;5052594;28;20220;-69
2024/01/14 05:20:46;;;;;;;47.97;25.40;;;-1.30;99.90;;;;;;5052444;28;20192;-69
2024/01/14 05:23:12;;;;;;;44.10;23.70;;;-1.20;99.90;;;;;;5052562;28;20205;-70
2024/01/14 05:25:37;;;;;;;46.20;25.57;;;-1.50;99.90;;;;;;5052785;28;20568;-69
2024/01/14 05:28:03;;;;;;;51.00;24.97;;;-1.70;99.90;;;;;;5052951;28;20163;-67
2024/01/14 05:30:29;;;;;;;45.57;24.20;;;-1.70;99.90;;;;;;5052518;28;20254;-68
2024/01/14 05:32:54;;;;;;;47.90;23.63;;;-1.80;99.90;;;;;;5052411;28;20219;-67
2024/01/14 05:35:20;;;;;;;40.43;21.43;;;-1.80;99.90;;;;;;5051912;28;20172;-68
2024/01/14 05:37:45;;;;;;;43.13;23.77;;;-1.80;99.90;;;;;;5052841;28;20178;-68
2024/01/14 05:40:11;;;;;;;38.73;21.57;;;-1.70;99.90;;;;;;5051075;28;20197;-68
2024/01/14 05:42:40;;;;;;;42.47;22.97;;;-1.60;99.90;;;;;;5051039;28;20239;-68
2024/01/14 05:45:07;;;;;;;50.10;24.23;;;-1.70;99.90;;;;;;5034749;28;20464;-68
2024/01/14 05:47:32;;;;;;;41.37;22.10;;;-1.60;99.90;;;;;;5033368;28;20429;-69
2024/01/14 05:49:58;;;;;;;45.77;24.00;;;-1.60;99.90;;;;;;5035982;28;20931;-69
2024/01/14 05:52:24;;;;;;;42.20;23.40;;;-1.60;99.90;;;;;;5036132;28;20167;-69
2024/01/14 05:54:49;;;;;;;47.37;24.27;;;-1.60;99.90;;;;;;5050731;28;20167;-69
2024/01/14 05:57:15;;;;;;;44.70;23.33;;;-1.70;99.90;;;;;;5055902;28;20167;-67
2024/01/14 05:59:40;;;;;;;52.53;25.07;;;-1.80;99.90;;;;;;5055906;28;20198;-69
2024/01/14 06:02:06;;;;;;;40.97;21.93;;;-1.70;99.90;;;;;;5055479;28;20246;-69
2024/01/14 06:04:32;;;;;;;41.63;23.07;;;-1.70;99.90;;;;;;5055503;28;20198;-68
2024/01/14 06:06:58;;;;;;;47.10;24.50;;;-1.70;99.90;;;;;;5055443;28;20250;-69
2024/01/14 06:09:23;;;;;;;42.00;22.40;;;-1.60;99.90;;;;;;5055530;28;20439;-69
2024/01/14 06:11:49;;;;;;;34.97;21.60;;;-1.50;99.90;;;;;;5055708;28;20173;-68
2024/01/14 06:14:14;;;;;;;44.60;23.70;;;-1.50;99.90;;;;;;5055248;28;20251;-68
2024/01/14 06:16:40;;;;;;;42.80;21.40;;;-1.60;99.90;;;;;;5055820;28;20172;-67
2024/01/14 06:19:06;;;;;;;42.50;22.80;;;-1.60;99.90;;;;;;5055567;28;20603;-69
2024/01/14 06:21:31;;;;;;;42.13;22.50;;;-1.60;99.90;;;;;;5055557;28;20163;-69
2024/01/14 06:23:57;;;;;;;39.47;22.47;;;-1.40;99.90;;;;;;5054990;28;20207;-69
2024/01/14 06:26:22;;;;;;;41.07;21.40;;;-1.40;99.90;;;;;;5056248;28;20163;-69
2024/01/14 06:28:48;;;;;;;39.53;22.20;;;-1.30;99.90;;;;;;5055172;28;20241;-69
2024/01/14 06:31:13;;;;;;;38.67;19.53;;;-1.20;99.90;;;;;;5055099;28;20257;-69
2024/01/14 06:33:39;;;;;;;35.10;19.83;;;-1.30;99.90;;;;;;5054992;28;20191;-69
2024/01/14 06:36:06;;;;;;;32.60;19.93;;;-1.40;99.90;;;;;;5055029;28;20179;-69
2024/01/14 06:38:35;;;;;;;45.03;22.50;;;-1.40;99.90;;;;;;5055075;28;20167;-68
2024/01/14 06:41:01;;;;;;;39.23;20.57;;;-1.50;99.90;;;;;;5055568;28;20444;-68
2024/01/14 06:43:26;;;;;;;46.10;22.30;;;-1.50;99.90;;;;;;5055003;28;20467;-69
2024/01/14 06:45:52;;;;;;;41.70;21.70;;;-1.50;99.90;;;;;;5054883;28;20412;-67
2024/01/14 06:48:18;;;;;;;33.40;20.87;;;-1.40;99.90;;;;;;5055224;28;20592;-69
2024/01/14 06:50:44;;;;;;;44.30;23.40;;;-1.30;99.90;;;;;;5058693;28;20429;-61
2024/01/14 06:53:09;;;;;;;41.57;23.37;;;-1.20;99.90;;;;;;5058114;28;20198;-64
2024/01/14 06:55:35;;;;;;;39.53;23.20;;;-1.30;99.90;;;;;;5055353;28;20252;-66
2024/01/14 06:58:00;;;;;;;43.90;23.83;;;-1.10;99.90;;;;;;5054488;28;20245;-67
2024/01/14 07:00:26;;;;;;;41.90;23.57;;;-1.00;99.90;;;;;;5045724;28;20661;-66
2024/01/14 07:02:52;;;;;;;44.93;24.00;;;-0.90;99.90;;;;;;5045131;28;20194;-66
2024/01/14 07:05:17;;;;;;;42.57;22.47;;;-0.80;99.90;;;;;;5045220;28;20358;-65
2024/01/14 07:07:44;;;;;;;43.57;23.27;;;-0.90;99.90;;;;;;5045117;28;20213;-67
2024/01/14 07:10:10;;;;;;;38.47;22.07;;;-0.80;99.90;;;;;;5044933;28;20174;-66
2024/01/14 07:12:35;;;;;;;42.70;23.43;;;-0.70;99.90;;;;;;5045207;28;20813;-68
2024/01/14 07:15:01;;;;;;;41.00;23.83;;;-0.80;99.90;;;;;;5045341;28;20716;-67
2024/01/14 07:17:26;;;;;;;60.03;26.70;;;-0.90;99.90;;;;;;5045150;28;20180;-67
2024/01/14 07:19:52;;;;;;;51.70;26.43;;;-1.10;99.90;;;;;;5045040;28;20721;-66
2024/01/14 07:22:17;;;;;;;45.30;25.10;;;-1.10;99.90;;;;;;5044713;28;20176;-66
2024/01/14 07:24:43;;;;;;;48.63;24.97;;;-1.00;99.90;;;;;;5044994;28;20207;-67
2024/01/14 07:27:09;;;;;;;48.93;26.13;;;-0.90;99.90;;;;;;5044555;28;20254;-69
2024/01/14 07:29:34;;;;;;;50.90;25.97;;;-0.90;99.90;;;;;;5044686;28;20187;-65
2024/01/14 07:32:00;;;;;;;44.80;24.23;;;-0.90;99.90;;;;;;5045643;28;20182;-66
2024/01/14 07:34:26;;;;;;;44.10;25.07;;;-1.00;99.90;;;;;;5053928;28;20327;-65
2024/01/14 07:36:52;;;;;;;52.30;28.20;;;-1.00;99.90;;;;;;5053480;28;20207;-67
2024/01/14 07:39:18;;;;;;;50.80;26.07;;;-0.90;99.90;;;;;;5053907;28;20935;-66
2024/01/14 07:41:43;;;;;;;43.30;22.80;;;-0.90;99.90;;;;;;5053815;28;20485;-66
2024/01/14 07:44:09;;;;;;;48.00;25.63;;;-1.00;99.90;;;;;;5053626;28;20270;-66
2024/01/14 07:46:35;;;;;;;52.53;26.23;;;-1.00;99.90;;;;;;5054025;28;20171;-66
2024/01/14 07:49:00;;;;;;;46.97;26.10;;;-0.90;99.90;;;;;;5035656;28;20639;-66
2024/01/14 07:51:26;;;;;;;46.17;25.77;;;-0.90;99.90;;;;;;5054268;28;20167;-65
2024/01/14 07:53:52;;;;;;;50.77;26.97;;;-0.80;99.90;;;;;;5053302;28;20447;-65
2024/01/14 07:56:19;;;;;;;48.70;25.47;;;-0.80;99.90;;;;;;5054160;28;20226;-66
2024/01/14 07:58:45;;;;;;;40.83;22.60;;;-0.70;99.90;;;;;;5053421;28;20641;-65
2024/01/14 08:01:11;;;;;;;50.20;26.97;;;-0.80;99.90;;;;;;5053600;28;20572;-65
2024/01/14 08:03:37;;;;;;;51.23;26.97;;;-1.00;99.90;;;;;;5052914;28;20211;-66
2024/01/14 08:06:02;;;;;;;44.67;22.57;;;-1.00;99.90;;;;;;5053515;28;20167;-67
2024/01/14 08:08:29;;;;;;;47.00;24.70;;;-1.10;99.90;;;;;;5053567;28;20165;-65
2024/01/14 08:10:54;;;;;;;51.13;25.60;;;-0.90;99.90;;;;;;5052971;28;20167;-66
2024/01/14 08:13:20;;;;;;;44.40;24.87;;;-0.80;99.90;;;;;;5053097;28;20504;-66
2024/01/14 08:15:45;;;;;;;50.90;28.10;;;-0.90;99.90;;;;;;5053031;28;20283;-64
2024/01/14 08:18:11;;;;;;;46.50;26.57;;;-0.80;99.90;;;;;;5053498;28;20187;-66
2024/01/14 08:20:36;;;;;;;49.70;25.43;;;-0.70;99.90;;;;;;5053317;28;20195;-66
2024/01/14 08:23:02;;;;;;;52.00;28.50;;;-0.70;99.90;;;;;;5053277;28;20290;-66
2024/01/14 08:25:28;;;;;;;52.57;28.07;;;-0.70;99.90;;;;;;5053204;28;20273;-65
2024/01/14 08:27:53;;;;;;;46.20;24.67;;;-0.80;99.90;;;;;;5035686;28;20813;-67
2024/01/14 08:30:19;;;;;;;42.00;24.93;;;-0.70;99.90;;;;;;5052975;28;20249;-66
2024/01/14 08:32:45;;;;;;;44.70;26.30;;;-0.60;99.90;;;;;;5052946;28;20188;-67
2024/01/14 08:35:17;;;;;;;39.60;23.70;;;-0.50;99.90;;;;;;5052909;28;20697;-67
2024/01/14 08:37:43;;;;;;;52.10;26.93;;;-0.40;99.90;;;;;;5053306;28;20148;-67
2024/01/14 08:40:12;;;;;;;45.33;25.60;;;-0.30;99.90;;;;;;5053393;28;20452;-64
2024/01/14 08:42:43;;;;;;;44.97;26.10;;;-0.30;99.90;;;;;;5053186;28;20417;-66
2024/01/14 08:45:12;;;;;;;46.40;25.87;;;-0.30;99.90;;;;;;5053027;28;20397;-65
2024/01/14 08:47:38;;;;;;;44.83;26.30;;;-0.30;99.90;;;;;;5052903;28;20405;-63
2024/01/14 08:50:06;;;;;;;41.80;24.80;;;-0.40;99.90;;;;;;5053409;28;20960;-66
2024/01/14 08:52:32;;;;;;;49.03;26.80;;;-0.50;99.90;;;;;;5053342;28;20414;-66
2024/01/14 08:54:58;;;;;;;46.93;27.10;;;-0.60;99.90;;;;;;5053079;28;20404;-66
2024/01/14 08:57:24;;;;;;;47.60;26.20;;;-0.80;99.90;;;;;;5052723;28;20173;-66
2024/01/14 08:59:49;;;;;;;41.83;24.03;;;-0.70;99.90;;;;;;5053162;28;20326;-65
2024/01/14 09:02:15;;;;;;;42.73;27.17;;;-0.60;99.90;;;;;;5053368;28;20465;-65
2024/01/14 09:04:40;;;;;;;40.50;25.53;;;-0.60;99.90;;;;;;5052751;28;20200;-66
2024/01/14 09:07:06;;;;;;;40.17;25.80;;;-0.70;99.90;;;;;;5034647;28;20253;-65
2024/01/14 09:09:31;;;;;;;42.87;24.73;;;-0.90;99.90;;;;;;5052707;28;20167;-67
2024/01/14 09:11:57;;;;;;;41.07;24.93;;;-0.80;99.90;;;;;;5052652;28;20180;-68
2024/01/14 09:14:23;;;;;;;38.60;24.20;;;-0.60;99.90;;;;;;5052411;28;20186;-66
2024/01/14 09:16:49;;;;;;;46.53;26.10;;;-0.50;99.90;;;;;;5052509;28;20433;-66
2024/01/14 09:19:14;;;;;;;45.43;26.60;;;-0.50;99.90;;;;;;5052461;28;20235;-66
2024/01/14 09:21:40;;;;;;;44.97;26.87;;;-0.50;99.90;;;;;;5054183;28;20172;-66
2024/01/14 09:24:06;;;;;;;41.53;25.73;;;-0.60;99.90;;;;;;5082463;22;20301;-66
2024/01/14 09:26:31;;;;;;;44.33;25.50;;;-0.60;99.90;;;;;;5076028;28;20215;-66
2024/01/14 09:28:57;;;;;;;45.10;25.83;;;-0.50;99.90;;;;;;5075951;28;20442;-67
2024/01/14 09:31:22;;;;;;;41.47;25.00;;;-0.50;99.90;;;;;;5075978;28;20169;-67
2024/01/14 09:33:48;;;;;;;51.67;26.20;;;-0.50;99.90;;;;;;5072156;28;20195;-67
2024/01/14 09:36:14;;;;;;;44.83;26.77;;;-0.50;99.90;;;;;;5052474;28;20247;-66
2024/01/14 09:38:40;;;;;;;46.93;26.87;;;-0.70;99.90;;;;;;5056563;28;20178;-67
2024/01/14 09:41:32;;;;;;;43.90;26.10;;;-0.70;99.90;;;;;;5056497;28;20666;-66
2024/01/14 09:43:58;;;;;;;45.93;25.80;;;-0.60;99.90;;;;;;5060647;28;20918;-66
2024/01/14 09:46:24;;;;;;;44.90;25.83;;;-0.30;99.90;;;;;;5068125;28;20420;-67
2024/01/14 09:48:54;;;;;;;42.00;24.30;;;-0.20;99.90;;;;;;5046447;28;20738;-67
2024/01/14 09:51:23;;;;;;;44.93;25.70;;;-0.10;99.90;;;;;;5046479;28;20585;-67
2024/01/14 09:53:48;;;;;;;46.97;25.20;;;0.00;99.90;;;;;;5046343;28;20630;-67
2024/01/14 09:56:15;;;;;;;45.10;25.67;;;0.10;99.90;;;;;;5045994;28;20470;-66
2024/01/14 09:58:42;;;;;;;45.30;26.70;;;0.10;99.90;;;;;;5053628;28;20175;-67
2024/01/14 10:01:09;;;;;;;41.33;24.13;;;-0.10;99.90;;;;;;5055446;28;20447;-67
2024/01/14 10:03:34;;;;;;;48.10;25.93;;;-0.20;99.90;;;;;;5067137;28;20452;-67
2024/01/14 10:06:01;;;;;;;47.03;25.43;;;-0.30;99.90;;;;;;5072406;28;20406;-67
2024/01/14 10:08:27;;;;;;;42.00;25.07;;;-0.40;99.90;;;;;;5075357;28;20166;-67
2024/01/14 10:10:53;;;;;;;48.13;25.23;;;-0.40;99.90;;;;;;5075300;28;21055;-67
2024/01/14 10:13:22;;;;;;;42.50;25.10;;;-0.10;99.90;;;;;;5064937;28;20502;-67
2024/01/14 10:15:48;;;;;;;47.67;24.60;;;0.00;99.90;;;;;;5055296;28;20258;-67
2024/01/14 10:18:14;;;;;;;44.43;27.53;;;-0.20;99.90;;;;;;5055158;28;20412;-67
2024/01/14 10:20:40;;;;;;;47.87;26.93;;;-0.20;99.90;;;;;;5055046;28;20474;-67
2024/01/14 10:23:05;;;;;;;42.23;25.33;;;-0.10;99.90;;;;;;5063023;28;20783;-67
2024/01/14 10:25:31;;;;;;;46.17;26.80;;;0.00;99.90;;;;;;5057138;28;20564;-67
2024/01/14 10:28:01;;;;;;;44.40;25.13;;;0.10;99.90;;;;;;5075457;28;20592;-67
2024/01/14 10:30:27;;;;;;;41.30;25.00;;;0.20;99.90;;;;;;5057036;28;20170;-67
2024/01/14 10:32:53;;;;;;;42.27;25.77;;;0.50;99.90;;;;;;5067740;28;20424;-67
2024/01/14 10:35:18;;;;;;;44.03;27.77;;;0.70;99.90;;;;;;5054669;28;20225;-67
2024/01/14 10:37:45;;;;;;;40.63;26.10;;;0.90;99.90;;;;;;5036733;28;20177;-67
2024/01/14 10:40:12;;;;;;;42.83;26.27;;;0.90;99.90;;;;;;5054921;28;20229;-67
2024/01/14 10:42:38;;;;;;;45.00;26.10;;;0.90;99.90;;;;;;5058821;28;20401;-68
2024/01/14 10:45:05;;;;;;;42.57;25.10;;;1.10;99.90;;;;;;5074810;28;20441;-67
2024/01/14 10:47:33;;;;;;;38.50;25.17;;;1.00;99.90;;;;;;5074868;28;20400;-67
2024/01/14 10:50:00;;;;;;;56.77;27.20;;;1.20;99.90;;;;;;5074821;28;20424;-67
2024/01/14 10:52:30;;;;;;;40.90;24.47;;;1.10;99.90;;;;;;5072040;28;20489;-67
2024/01/14 10:54:58;;;;;;;36.37;22.70;;;0.90;99.90;;;;;;5054974;28;20892;-67
2024/01/14 10:57:34;;;;;;;44.17;24.60;;;1.20;99.90;;;;;;5054353;28;20462;-67
2024/01/14 11:00:08;;;;;;;45.83;27.60;;;1.20;99.90;;;;;;5054201;28;20440;-67
2024/01/14 11:02:35;;;;;;;43.77;25.00;;;1.40;99.90;;;;;;5057344;28;20423;-67
2024/01/14 11:05:06;;;;;;;47.63;27.97;;;1.50;99.90;;;;;;5074106;28;20407;-67
2024/01/14 11:07:36;;;;;;;47.03;27.00;;;1.70;99.90;;;;;;5073959;28;20409;-67
2024/01/14 11:10:07;;;;;;;40.17;25.53;;;2.20;99.90;;;;;;5074009;28;20798;-67
2024/01/14 11:12:54;;;;;;;35.73;24.00;;;3.10;99.90;;;;;;5071097;28;20492;-67
2024/01/14 11:15:28;;;;;;;39.63;25.10;;;4.50;99.90;;;;;;5054057;28;20382;-67
2024/01/14 11:18:04;;;;;;;37.93;23.60;;;6.40;99.90;;;;;;5054246;28;20385;-67
2024/01/14 11:20:32;;;;;;;39.30;24.80;;;7.50;97.60;;;;;;5054372;28;20474;-67
2024/01/14 11:22:58;;;;;;;40.23;25.67;;;7.90;96.00;;;;;;5060041;28;20442;-67
2024/01/14 11:25:33;;;;;;;37.77;25.80;;;8.90;93.60;;;;;;5074112;28;20387;-68
2024/01/14 11:28:02;;;;;;;38.37;23.87;;;8.70;92.10;;;;;;5056406;28;20165;-67
2024/01/14 11:30:46;;;;;;;35.83;25.03;;;9.10;91.00;;;;;;5033769;28;20415;-68
2024/01/14 11:33:32;;;;;;;36.73;25.50;;;9.00;90.40;;;;;;5049620;28;20957;-67
2024/01/14 11:36:00;;;;;;;34.57;23.70;;;8.80;89.00;;;;;;5073551;28;21056;-67
2024/01/14 11:38:33;;;;;;;36.90;26.37;;;8.40;90.60;;;;;;5073723;28;20406;-68
2024/01/14 11:41:19;;;;;;;35.30;24.83;;;8.40;90.10;;;;;;5073316;28;20490;-67
2024/01/14 11:43:46;;;;;;;37.63;25.00;;;7.60;91.60;;;;;;5060789;28;20506;-67
2024/01/14 11:46:36;;;;;;;36.63;25.73;;;8.70;91.00;;;;;;5053548;28;20820;-68
2024/01/14 11:49:03;;;;;;;40.20;27.30;;;9.10;89.50;;;;;;5053628;28;20396;-68
2024/01/14 11:51:31;;;;;;;35.67;25.80;;;9.70;87.00;;;;;;5071274;28;20412;-68
2024/01/14 11:54:00;;;;;;;31.87;23.23;;;10.00;85.30;;;;;;5059314;28;20434;-68
2024/01/14 11:56:29;;;;;;;41.30;25.03;;;10.20;84.10;;;;;;5053176;28;20911;-68
2024/01/14 11:58:58;;;;;;;35.10;24.00;;;10.40;82.20;;;;;;5053368;28;20436;-68
2024/01/14 12:01:27;;;;;;;34.77;23.73;;;11.20;80.20;;;;;;5053049;28;20471;-68
2024/01/14 12:04:01;;;;;;;31.00;22.53;;;12.20;77.40;;;;;;5069428;28;20430;-67
2024/01/14 12:06:26;;;;;;;35.60;22.97;;;11.70;74.70;;;;;;5074025;28;20904;-67
2024/01/14 12:09:01;;;;;;;31.17;23.07;;;11.40;74.70;;;;;;5073380;28;20415;-67
2024/01/14 12:11:27;;;;;;;33.47;22.90;;;11.50;74.40;;;;;;5073364;28;20257;-67
2024/01/14 12:13:53;;;;;;;39.43;24.30;;;10.60;77.00;;;;;;5059740;28;20437;-67
2024/01/14 12:16:18;;;;;;;35.47;23.80;;;11.50;74.70;;;;;;5053630;28;20405;-67
2024/01/14 12:18:44;;;;;;;33.40;22.10;;;12.20;73.00;;;;;;5053487;28;20182;-68
2024/01/14 12:21:11;;;;;;;34.27;23.20;;;12.10;71.40;;;;;;5053110;28;20208;-68
2024/01/14 12:23:37;;;;;;;39.17;26.07;;;11.80;73.00;;;;;;5063297;28;20460;-67
2024/01/14 12:26:05;;;;;;;30.40;22.23;;;12.30;70.50;;;;;;5072896;28;20420;-67
2024/01/14 12:28:31;;;;;;;32.53;21.87;;;12.70;69.20;;;;;;5072835;28;20499;-67